createdAt,value
2018-06-14T00:00:16.026Z,91.63
2018-06-14T00:01:16.047Z,91.24
2018-06-14T00:02:16.114Z,91.14
2018-06-14T00:03:16.075Z,91.82
2018-06-14T00:04:16.096Z,92.01
2018-06-14T00:05:16.110Z,91.72
2018-06-14T00:06:16.126Z,91.63
2018-06-14T00:07:16.140Z,91.63
2018-06-14T00:08:16.156Z,91.63
2018-06-14T00:09:16.178Z,91.91
2018-06-14T00:10:16.189Z,91.91
2018-06-14T00:11:16.202Z,92.10
2018-06-14T00:12:16.225Z,91.91
2018-06-14T00:13:16.241Z,91.63
2018-06-14T00:14:16.304Z,92.10
2018-06-14T00:15:16.269Z,91.91
2018-06-14T00:16:16.291Z,92.10
2018-06-14T00:17:16.300Z,92.01
2018-06-14T00:18:16.318Z,91.91
2018-06-14T00:19:16.409Z,91.82
2018-06-14T00:20:16.363Z,92.39
2018-06-14T00:21:16.374Z,92.20
2018-06-14T00:22:16.389Z,92.49
2018-06-14T00:23:16.404Z,92.20
2018-06-14T00:24:16.413Z,92.39
2018-06-14T00:25:16.468Z,91.82
2018-06-14T00:26:16.504Z,91.77
2018-06-14T00:27:16.469Z,92.30
2018-06-14T00:28:16.487Z,92.35
2018-06-14T00:29:16.497Z,92.15
2018-06-14T00:30:16.519Z,91.96
2018-06-14T00:31:16.532Z,92.15
2018-06-14T00:32:16.604Z,92.20
2018-06-14T00:33:16.562Z,92.06
2018-06-14T00:34:16.580Z,92.06
2018-06-14T00:35:16.598Z,92.10
2018-06-14T00:36:16.612Z,92.49
2018-06-14T00:37:16.630Z,92.01
2018-06-14T00:38:16.697Z,92.01
2018-06-14T00:39:16.664Z,92.10
2018-06-14T00:40:16.678Z,92.30
2018-06-14T00:41:16.691Z,92.25
2018-06-14T00:42:16.709Z,91.72
2018-06-14T00:43:16.814Z,92.15
2018-06-14T00:44:16.743Z,92.35
2018-06-14T00:45:16.756Z,92.15
2018-06-14T00:46:16.773Z,92.44
2018-06-14T00:47:16.792Z,92.15
2018-06-14T00:48:16.804Z,93.11
2018-06-14T00:49:16.873Z,93.02
2018-06-14T00:50:16.842Z,93.21
2018-06-14T00:51:16.856Z,93.02
2018-06-14T00:52:16.871Z,92.82
2018-06-14T00:53:16.887Z,92.82
2018-06-14T00:54:16.912Z,92.73
2018-06-14T00:55:16.986Z,93.21
2018-06-14T00:56:16.988Z,93.11
2018-06-14T00:57:16.957Z,93.21
2018-06-14T00:58:16.970Z,93.49
2018-06-14T00:59:16.985Z,93.02
2018-06-14T01:00:17.008Z,93.49
2018-06-14T01:01:17.037Z,93.49
2018-06-14T01:02:17.042Z,93.40
2018-06-14T01:03:17.053Z,93.21
2018-06-14T01:04:17.073Z,93.40
2018-06-14T01:05:17.082Z,93.69
2018-06-14T01:06:17.098Z,93.30
2018-06-14T01:07:17.150Z,93.59
2018-06-14T01:08:17.140Z,93.40
2018-06-14T01:09:17.154Z,93.30
2018-06-14T01:10:17.169Z,93.21
2018-06-14T01:11:17.185Z,93.69
2018-06-14T01:12:17.199Z,93.40
2018-06-14T01:13:17.218Z,93.30
2018-06-14T01:14:17.231Z,93.88
2018-06-14T01:15:17.245Z,93.59
2018-06-14T01:16:17.262Z,93.59
2018-06-14T01:17:17.283Z,93.78
2018-06-14T01:18:17.295Z,93.40
2018-06-14T01:19:17.390Z,93.49
2018-06-14T01:20:17.328Z,93.21
2018-06-14T01:21:17.344Z,93.40
2018-06-14T01:22:17.374Z,93.78
2018-06-14T01:23:17.378Z,93.78
2018-06-14T01:24:17.396Z,93.49
2018-06-14T01:25:17.457Z,93.78
2018-06-14T01:26:17.475Z,93.40
2018-06-14T01:27:17.440Z,93.49
2018-06-14T01:28:17.460Z,93.59
2018-06-14T01:29:17.479Z,93.78
2018-06-14T01:30:17.495Z,93.88
2018-06-14T01:31:17.585Z,93.98
2018-06-14T01:32:17.520Z,93.78
2018-06-14T01:33:17.539Z,92.92
2018-06-14T01:34:17.558Z,93.21
2018-06-14T01:35:17.567Z,93.78
2018-06-14T01:36:17.591Z,93.59
2018-06-14T01:37:17.622Z,93.21
2018-06-14T01:38:17.624Z,93.59
2018-06-14T01:39:17.639Z,93.69
2018-06-14T01:40:17.654Z,93.69
2018-06-14T01:41:17.668Z,93.98
2018-06-14T01:42:17.681Z,93.59
2018-06-14T01:43:17.697Z,93.49
2018-06-14T01:44:17.765Z,93.40
2018-06-14T01:45:17.733Z,93.49
2018-06-14T01:46:17.747Z,93.49
2018-06-14T01:47:17.764Z,93.78
2018-06-14T01:48:17.791Z,93.21
2018-06-14T01:49:17.800Z,93.40
2018-06-14T01:50:17.817Z,93.40
2018-06-14T01:51:17.828Z,93.88
2018-06-14T01:52:17.843Z,93.78
2018-06-14T01:53:17.860Z,93.40
2018-06-14T01:54:17.874Z,93.59
2018-06-14T01:55:17.896Z,93.59
2018-06-14T01:56:17.920Z,93.40
2018-06-14T01:57:17.928Z,93.78
2018-06-14T01:58:17.942Z,93.88
2018-06-14T01:59:17.960Z,93.40
2018-06-14T02:00:17.978Z,93.40
2018-06-14T02:01:17.985Z,93.40
2018-06-14T02:02:18.063Z,93.30
2018-06-14T02:03:18.019Z,93.21
2018-06-14T02:04:18.035Z,93.21
2018-06-14T02:05:18.054Z,93.49
2018-06-14T02:06:18.090Z,93.69
2018-06-14T02:07:18.088Z,94.07
2018-06-14T02:08:18.157Z,94.17
2018-06-14T02:09:18.119Z,94.07
2018-06-14T02:10:18.134Z,93.88
2018-06-14T02:11:18.152Z,94.17
2018-06-14T02:12:18.189Z,93.98
2018-06-14T02:13:18.184Z,94.07
2018-06-14T02:14:18.201Z,93.98
2018-06-14T02:15:18.210Z,94.55
2018-06-14T02:16:18.226Z,94.17
2018-06-14T02:17:18.258Z,93.98
2018-06-14T02:18:18.340Z,93.98
2018-06-14T02:19:18.278Z,94.35
2018-06-14T02:20:18.293Z,93.78
2018-06-14T02:21:18.311Z,93.78
2018-06-14T02:22:18.324Z,94.17
2018-06-14T02:23:18.341Z,93.88
2018-06-14T02:24:18.419Z,93.49
2018-06-14T02:25:18.374Z,93.40
2018-06-14T02:26:18.393Z,93.40
2018-06-14T02:27:18.410Z,93.49
2018-06-14T02:28:18.425Z,93.88
2018-06-14T02:29:18.436Z,93.69
2018-06-14T02:30:18.458Z,94.35
2018-06-14T02:31:18.471Z,94.45
2018-06-14T02:32:18.488Z,93.88
2018-06-14T02:33:18.499Z,94.17
2018-06-14T02:34:18.519Z,94.07
2018-06-14T02:35:18.531Z,94.35
2018-06-14T02:36:18.571Z,94.07
2018-06-14T02:37:18.621Z,94.64
2018-06-14T02:38:18.581Z,94.64
2018-06-14T02:39:18.604Z,94.35
2018-06-14T02:40:18.615Z,93.78
2018-06-14T02:41:18.632Z,94.26
2018-06-14T02:42:18.734Z,94.21
2018-06-14T02:43:18.711Z,94.35
2018-06-14T02:44:18.679Z,93.49
2018-06-14T02:45:18.696Z,93.49
2018-06-14T02:46:18.715Z,93.69
2018-06-14T02:47:18.729Z,94.45
2018-06-14T02:48:18.755Z,93.98
2018-06-14T02:49:18.812Z,94.07
2018-06-14T02:50:18.775Z,94.69
2018-06-14T02:51:18.789Z,94.55
2018-06-14T02:52:18.808Z,94.26
2018-06-14T02:53:18.825Z,94.84
2018-06-14T02:54:18.838Z,94.50
2018-06-14T02:55:18.854Z,94.17
2018-06-14T02:56:18.865Z,94.50
2018-06-14T02:57:18.883Z,94.84
2018-06-14T02:58:18.902Z,94.84
2018-06-14T02:59:18.963Z,94.69
2018-06-14T03:00:18.935Z,94.69
2018-06-14T03:01:18.949Z,94.98
2018-06-14T03:02:18.961Z,94.79
2018-06-14T03:03:18.986Z,95.03
2018-06-14T03:04:18.997Z,94.69
2018-06-14T03:05:19.017Z,95.60
2018-06-14T03:06:19.030Z,95.17
2018-06-14T03:07:19.105Z,95.17
2018-06-14T03:08:19.060Z,95.17
2018-06-14T03:09:19.076Z,95.17
2018-06-14T03:10:19.093Z,95.41
2018-06-14T03:11:19.106Z,95.17
2018-06-14T03:12:19.128Z,95.27
2018-06-14T03:13:19.191Z,95.22
2018-06-14T03:14:19.159Z,94.89
2018-06-14T03:15:19.169Z,95.36
2018-06-14T03:16:19.194Z,95.17
2018-06-14T03:17:19.204Z,95.75
2018-06-14T03:18:19.224Z,95.46
2018-06-14T03:19:19.237Z,95.94
2018-06-14T03:20:19.257Z,95.75
2018-06-14T03:21:19.270Z,95.56
2018-06-14T03:22:19.290Z,95.84
2018-06-14T03:23:19.298Z,95.94
2018-06-14T03:24:19.320Z,95.94
2018-06-14T03:25:19.337Z,95.94
2018-06-14T03:26:19.349Z,95.75
2018-06-14T03:27:19.365Z,95.75
2018-06-14T03:28:19.385Z,95.46
2018-06-14T03:29:19.401Z,95.84
2018-06-14T03:30:19.420Z,95.84
2018-06-14T03:31:19.433Z,95.56
2018-06-14T03:32:19.448Z,95.84
2018-06-14T03:33:19.460Z,95.89
2018-06-14T03:34:19.499Z,95.46
2018-06-14T03:35:19.496Z,95.94
2018-06-14T03:36:19.512Z,96.13
2018-06-14T03:37:19.527Z,95.75
2018-06-14T03:38:19.543Z,95.65
2018-06-14T03:39:19.562Z,95.75
2018-06-14T03:40:19.576Z,95.56
2018-06-14T03:41:19.588Z,95.56
2018-06-14T03:42:19.604Z,96.22
2018-06-14T03:43:19.626Z,96.03
2018-06-14T03:44:19.643Z,95.94
2018-06-14T03:45:19.659Z,96.13
2018-06-14T03:46:19.685Z,95.94
2018-06-14T03:47:19.686Z,96.13
2018-06-14T03:48:19.701Z,95.75
2018-06-14T03:49:19.720Z,95.70
2018-06-14T03:50:19.732Z,95.56
2018-06-14T03:51:19.752Z,95.84
2018-06-14T03:52:19.771Z,96.13
2018-06-14T03:53:19.781Z,96.22
2018-06-14T03:54:19.795Z,95.98
2018-06-14T03:55:19.816Z,95.75
2018-06-14T03:56:19.826Z,96.08
2018-06-14T03:57:19.846Z,96.03
2018-06-14T03:58:19.892Z,95.94
2018-06-14T03:59:19.874Z,96.18
2018-06-14T04:00:19.895Z,96.13
2018-06-14T04:01:19.912Z,95.84
2018-06-14T04:02:19.930Z,95.94
2018-06-14T04:03:19.940Z,96.32
2018-06-14T04:04:19.982Z,96.18
2018-06-14T04:05:19.969Z,96.22
2018-06-14T04:06:19.988Z,96.37
2018-06-14T04:07:20.054Z,96.70
2018-06-14T04:08:20.025Z,96.70
2018-06-14T04:09:20.042Z,96.66
2018-06-14T04:10:20.081Z,96.61
2018-06-14T04:11:20.072Z,96.32
2018-06-14T04:12:20.083Z,95.75
2018-06-14T04:13:20.151Z,96.22
2018-06-14T04:14:20.119Z,96.80
2018-06-14T04:15:20.133Z,95.98
2018-06-14T04:16:20.148Z,95.98
2018-06-14T04:17:20.167Z,95.84
2018-06-14T04:18:20.177Z,95.94
2018-06-14T04:19:20.202Z,96.03
2018-06-14T04:20:20.216Z,95.98
2018-06-14T04:21:20.235Z,96.22
2018-06-14T04:22:20.257Z,96.22
2018-06-14T04:23:20.261Z,96.37
2018-06-14T04:24:20.275Z,96.42
2018-06-14T04:25:20.291Z,96.61
2018-06-14T04:26:20.310Z,95.98
2018-06-14T04:27:20.332Z,95.98
2018-06-14T04:28:20.373Z,96.18
2018-06-14T04:29:20.352Z,96.22
2018-06-14T04:30:20.369Z,96.13
2018-06-14T04:31:20.386Z,96.13
2018-06-14T04:32:20.407Z,96.13
2018-06-14T04:33:20.423Z,96.03
2018-06-14T04:34:20.475Z,96.18
2018-06-14T04:35:20.453Z,96.37
2018-06-14T04:36:20.472Z,96.37
2018-06-14T04:37:20.485Z,96.42
2018-06-14T04:38:20.511Z,96.08
2018-06-14T04:39:20.555Z,96.37
2018-06-14T04:40:20.572Z,95.84
2018-06-14T04:41:20.548Z,95.98
2018-06-14T04:42:20.563Z,96.27
2018-06-14T04:43:20.593Z,96.70
2018-06-14T04:44:20.593Z,96.61
2018-06-14T04:45:20.610Z,96.56
2018-06-14T04:46:20.624Z,96.22
2018-06-14T04:47:20.646Z,96.51
2018-06-14T04:48:20.660Z,96.51
2018-06-14T04:49:20.726Z,96.22
2018-06-14T04:50:20.691Z,96.27
2018-06-14T04:51:20.706Z,96.22
2018-06-14T04:52:20.725Z,96.13
2018-06-14T04:53:20.743Z,96.80
2018-06-14T04:54:20.754Z,96.18
2018-06-14T04:55:20.776Z,96.03
2018-06-14T04:56:20.792Z,96.47
2018-06-14T04:57:20.807Z,96.32
2018-06-14T04:58:20.818Z,96.42
2018-06-14T04:59:20.831Z,96.61
2018-06-14T05:00:20.852Z,96.27
2018-06-14T05:01:20.865Z,96.56
2018-06-14T05:02:20.920Z,96.70
2018-06-14T05:03:20.901Z,96.22
2018-06-14T05:04:20.912Z,97.18
2018-06-14T05:05:20.929Z,97.18
2018-06-14T05:06:20.947Z,96.99
2018-06-14T05:07:21.016Z,96.80
2018-06-14T05:08:20.982Z,96.99
2018-06-14T05:09:20.990Z,96.99
2018-06-14T05:10:21.011Z,96.80
2018-06-14T05:11:21.028Z,96.70
2018-06-14T05:12:21.048Z,97.09
2018-06-14T05:13:21.057Z,97.09
2018-06-14T05:14:21.081Z,96.80
2018-06-14T05:15:21.090Z,97.18
2018-06-14T05:16:21.108Z,96.84
2018-06-14T05:17:21.121Z,96.80
2018-06-14T05:18:21.138Z,96.80
2018-06-14T05:19:21.156Z,96.80
2018-06-14T05:20:21.175Z,97.23
2018-06-14T05:21:21.187Z,97.14
2018-06-14T05:22:21.202Z,96.89
2018-06-14T05:23:21.223Z,96.47
2018-06-14T05:24:21.236Z,96.47
2018-06-14T05:25:21.300Z,95.98
2018-06-14T05:26:21.267Z,96.08
2018-06-14T05:27:21.284Z,96.18
2018-06-14T05:28:21.296Z,96.27
2018-06-14T05:29:21.315Z,95.60
2018-06-14T05:30:21.331Z,96.08
2018-06-14T05:31:21.399Z,95.89
2018-06-14T05:32:21.360Z,95.89
2018-06-14T05:33:21.378Z,95.79
2018-06-14T05:34:21.393Z,95.79
2018-06-14T05:35:21.415Z,95.98
2018-06-14T05:36:21.451Z,95.98
2018-06-14T05:37:21.491Z,95.79
2018-06-14T05:38:21.464Z,95.60
2018-06-14T05:39:21.476Z,95.60
2018-06-14T05:40:21.493Z,94.93
2018-06-14T05:41:21.505Z,95.31
2018-06-14T05:42:21.545Z,95.31
2018-06-14T05:43:21.538Z,95.12
2018-06-14T05:44:21.552Z,95.12
2018-06-14T05:45:21.576Z,95.12
2018-06-14T05:46:21.617Z,95.12
2018-06-14T05:47:21.604Z,95.70
2018-06-14T05:48:21.618Z,95.03
2018-06-14T05:49:21.637Z,94.93
2018-06-14T05:50:21.655Z,94.84
2018-06-14T05:51:21.667Z,94.64
2018-06-14T05:52:21.712Z,94.93
2018-06-14T05:53:21.699Z,94.74
2018-06-14T05:54:21.721Z,94.55
2018-06-14T05:55:21.730Z,94.26
2018-06-14T05:56:21.746Z,94.50
2018-06-14T05:57:21.760Z,93.78
2018-06-14T05:58:21.780Z,94.55
2018-06-14T05:59:21.796Z,94.21
2018-06-14T06:00:21.813Z,93.83
2018-06-14T06:01:21.880Z,93.73
2018-06-14T06:02:21.849Z,94.12
2018-06-14T06:03:21.858Z,93.54
2018-06-14T06:04:21.944Z,93.54
2018-06-14T06:05:21.895Z,94.31
2018-06-14T06:06:21.912Z,93.35
2018-06-14T06:07:21.976Z,94.50
2018-06-14T06:08:21.945Z,94.31
2018-06-14T06:09:21.958Z,94.12
2018-06-14T06:10:22.003Z,93.93
2018-06-14T06:11:21.989Z,93.83
2018-06-14T06:12:22.011Z,93.73
2018-06-14T06:13:22.072Z,93.83
2018-06-14T06:14:22.043Z,93.54
2018-06-14T06:15:22.052Z,93.35
2018-06-14T06:16:22.074Z,93.54
2018-06-14T06:17:22.084Z,93.54
2018-06-14T06:18:22.113Z,93.54
2018-06-14T06:19:22.123Z,93.54
2018-06-14T06:20:22.135Z,93.35
2018-06-14T06:21:22.158Z,93.16
2018-06-14T06:22:22.165Z,93.01
2018-06-14T06:23:22.237Z,93.11
2018-06-14T06:24:22.204Z,92.63
2018-06-14T06:25:22.213Z,92.82
2018-06-14T06:26:22.318Z,92.15
2018-06-14T06:27:22.247Z,92.44
2018-06-14T06:28:22.266Z,92.34
2018-06-14T06:29:22.282Z,92.15
2018-06-14T06:30:22.298Z,91.38
2018-06-14T06:31:22.315Z,92.05
2018-06-14T06:32:22.332Z,91.72
2018-06-14T06:33:22.419Z,91.62
2018-06-14T06:34:22.364Z,91.24
2018-06-14T06:35:22.380Z,90.85
2018-06-14T06:36:22.412Z,90.18
2018-06-14T06:37:22.466Z,89.99
2018-06-14T06:38:22.430Z,89.84
2018-06-14T06:39:22.446Z,89.46
2018-06-14T06:40:22.467Z,89.55
2018-06-14T06:41:22.497Z,89.46
2018-06-14T06:42:22.504Z,88.59
2018-06-14T06:43:22.522Z,88.02
2018-06-14T06:44:22.529Z,87.96
2018-06-14T06:45:22.598Z,87.96
2018-06-14T06:46:22.561Z,88.06
2018-06-14T06:47:22.627Z,88.06
2018-06-14T06:48:22.599Z,87.10
2018-06-14T06:49:22.614Z,86.91
2018-06-14T06:50:22.628Z,86.43
2018-06-14T06:51:22.663Z,86.52
2018-06-14T06:52:22.660Z,86.24
2018-06-14T06:53:22.738Z,85.95
2018-06-14T06:54:22.695Z,86.43
2018-06-14T06:55:22.716Z,85.57
2018-06-14T06:56:22.732Z,85.47
2018-06-14T06:57:22.745Z,85.41
2018-06-14T06:58:22.767Z,85.13
2018-06-14T07:00:22.796Z,84.40
2018-06-14T07:01:22.868Z,84.30
2018-06-14T07:02:22.833Z,83.73
2018-06-14T07:03:22.856Z,83.63
2018-06-14T07:04:22.871Z,84.30
2018-06-14T07:05:22.881Z,83.25
2018-06-14T07:06:22.908Z,83.58
2018-06-14T07:07:22.975Z,82.81
2018-06-14T07:08:22.936Z,82.81
2018-06-14T07:09:22.960Z,82.90
2018-06-14T07:10:22.970Z,82.52
2018-06-14T07:11:22.991Z,82.52
2018-06-14T07:12:23.004Z,82.90
2018-06-14T07:13:23.026Z,81.65
2018-06-14T07:14:23.050Z,82.52
2018-06-14T07:15:23.064Z,82.04
2018-06-14T07:16:23.084Z,82.32
2018-06-14T07:17:23.095Z,81.94
2018-06-14T07:18:23.116Z,81.94
2018-06-14T07:19:23.185Z,81.60
2018-06-14T07:20:23.148Z,81.75
2018-06-14T07:21:23.167Z,81.75
2018-06-14T07:22:23.187Z,81.98
2018-06-14T07:23:23.205Z,81.79
2018-06-14T07:24:23.220Z,81.21
2018-06-14T07:25:23.288Z,81.70
2018-06-14T07:26:23.262Z,81.27
2018-06-14T07:27:23.276Z,81.12
2018-06-14T07:28:23.300Z,81.12
2018-06-14T07:29:23.314Z,80.92
2018-06-14T07:30:23.332Z,80.92
2018-06-14T07:31:23.353Z,80.35
2018-06-14T07:32:23.367Z,80.63
2018-06-14T07:33:23.384Z,80.54
2018-06-14T07:34:23.438Z,80.38
2018-06-14T07:35:23.422Z,79.58
2018-06-14T07:36:23.442Z,79.52
2018-06-14T07:37:23.455Z,78.75
2018-06-14T07:38:23.470Z,78.02
2018-06-14T07:39:23.496Z,77.25
2018-06-14T07:40:23.512Z,78.85
2018-06-14T07:41:23.526Z,78.75
2018-06-14T07:42:23.552Z,78.75
2018-06-14T07:43:23.568Z,78.40
2018-06-14T07:44:23.581Z,78.36
2018-06-14T07:45:23.601Z,78.17
2018-06-14T07:46:23.661Z,79.03
2018-06-14T07:47:23.636Z,78.21
2018-06-14T07:48:23.662Z,79.17
2018-06-14T07:49:23.677Z,77.83
2018-06-14T07:50:23.694Z,76.76
2018-06-14T07:51:23.711Z,77.15
2018-06-14T07:52:23.804Z,76.82
2018-06-14T07:53:23.749Z,77.98
2018-06-14T07:54:23.773Z,78.94
2018-06-14T07:55:23.837Z,78.36
2018-06-14T07:56:23.803Z,77.83
2018-06-14T07:57:23.827Z,77.59
2018-06-14T07:58:23.874Z,77.92
2018-06-14T07:59:23.864Z,76.13
2018-06-14T08:00:23.885Z,76.13
2018-06-14T08:01:23.952Z,75.07
2018-06-14T08:02:23.917Z,75.74
2018-06-14T08:03:23.933Z,75.59
2018-06-14T08:04:23.982Z,75.30
2018-06-14T08:05:23.975Z,73.57
2018-06-14T08:06:24.015Z,74.14
2018-06-14T08:07:24.066Z,74.62
2018-06-14T08:08:24.035Z,73.31
2018-06-14T08:09:24.050Z,72.63
2018-06-14T08:10:24.067Z,73.73
2018-06-14T08:11:24.091Z,71.90
2018-06-14T08:12:24.152Z,71.80
2018-06-14T08:13:24.175Z,71.90
2018-06-14T08:14:24.141Z,71.28
2018-06-14T08:15:24.168Z,71.80
2018-06-14T08:16:24.182Z,71.80
2018-06-14T08:17:24.205Z,72.28
2018-06-14T08:18:24.223Z,71.67
2018-06-14T08:19:24.246Z,72.38
2018-06-14T08:20:24.264Z,71.90
2018-06-14T08:21:24.278Z,70.54
2018-06-14T08:22:24.299Z,70.26
2018-06-14T08:23:24.315Z,70.74
2018-06-14T08:24:24.338Z,70.54
2018-06-14T08:25:24.357Z,70.94
2018-06-14T08:26:24.379Z,71.55
2018-06-14T08:27:24.412Z,71.64
2018-06-14T08:28:24.419Z,71.16
2018-06-14T08:29:24.442Z,70.52
2018-06-14T08:30:24.459Z,69.56
2018-06-14T08:31:24.473Z,69.81
2018-06-14T08:32:24.497Z,69.90
2018-06-14T08:33:24.545Z,69.36
2018-06-14T08:34:24.534Z,68.59
2018-06-14T08:35:24.559Z,68.78
2018-06-14T08:36:24.575Z,69.36
2018-06-14T08:37:24.644Z,69.26
2018-06-14T08:38:24.613Z,68.04
2018-06-14T08:39:24.635Z,67.94
2018-06-14T08:40:24.659Z,67.72
2018-06-14T08:41:24.681Z,67.52
2018-06-14T08:42:24.694Z,67.85
2018-06-14T08:43:24.764Z,66.78
2018-06-14T08:44:24.735Z,66.33
2018-06-14T08:45:24.774Z,64.59
2018-06-14T08:46:24.776Z,64.76
2018-06-14T08:47:24.796Z,65.43
2018-06-14T08:48:24.814Z,65.17
2018-06-14T08:49:24.886Z,64.59
2018-06-14T08:50:24.861Z,65.37
2018-06-14T08:51:24.878Z,65.43
2018-06-14T08:52:24.898Z,66.17
2018-06-14T08:53:24.915Z,65.50
2018-06-14T08:54:24.938Z,65.88
2018-06-14T08:55:24.961Z,65.53
2018-06-14T08:56:24.980Z,65.43
2018-06-14T08:57:25.030Z,64.50
2018-06-14T08:58:25.018Z,64.14
2018-06-14T08:59:25.052Z,62.79
2018-06-14T09:00:25.061Z,62.63
2018-06-14T09:01:25.149Z,62.92
2018-06-14T09:02:25.105Z,62.72
2018-06-14T09:03:25.177Z,61.40
2018-06-14T09:04:25.144Z,61.08
2018-06-14T09:05:25.166Z,62.34
2018-06-14T09:06:25.189Z,61.46
2018-06-14T09:07:25.207Z,61.79
2018-06-14T09:08:25.228Z,61.30
2018-06-14T09:09:25.278Z,60.43
2018-06-14T09:10:25.275Z,61.33
2018-06-14T09:11:25.391Z,62.18
2018-06-14T09:12:25.315Z,62.50
2018-06-14T09:13:25.336Z,61.82
2018-06-14T09:14:25.362Z,62.21
2018-06-14T09:15:25.438Z,61.46
2018-06-14T09:16:25.396Z,61.40
2018-06-14T09:17:25.416Z,60.78
2018-06-14T09:18:25.441Z,62.21
2018-06-14T09:19:25.513Z,62.56
2018-06-14T09:20:25.483Z,62.01
2018-06-14T09:21:25.501Z,62.56
2018-06-14T09:22:25.524Z,63.66
2018-06-14T09:23:25.544Z,62.04
2018-06-14T09:24:25.571Z,60.52
2018-06-14T09:25:25.590Z,59.78
2018-06-14T09:26:25.611Z,58.74
2018-06-14T09:27:25.633Z,58.26
2018-06-14T09:28:25.659Z,57.97
2018-06-14T09:29:25.675Z,57.58
2018-06-14T09:30:25.692Z,57.70
2018-06-14T09:31:25.718Z,57.48
2018-06-14T09:32:25.738Z,57.36
2018-06-14T09:33:25.756Z,58.98
2018-06-14T09:34:25.860Z,59.75
2018-06-14T09:35:25.805Z,60.17
2018-06-14T09:36:25.822Z,59.97
2018-06-14T09:37:25.843Z,59.94
2018-06-14T09:38:25.868Z,60.36
2018-06-14T09:39:25.893Z,59.69
2018-06-14T09:40:25.976Z,60.82
2018-06-14T09:41:25.931Z,60.72
2018-06-14T09:42:25.950Z,61.01
2018-06-14T09:43:25.974Z,59.66
2018-06-14T09:44:25.996Z,60.72
2018-06-14T09:45:26.012Z,59.88
2018-06-14T09:46:26.076Z,60.04
2018-06-14T09:47:26.057Z,59.69
2018-06-14T09:48:26.133Z,58.72
2018-06-14T09:49:26.116Z,59.46
2018-06-14T09:50:26.250Z,58.94
2018-06-14T09:51:26.146Z,57.03
2018-06-14T09:52:26.241Z,55.50
2018-06-14T09:53:26.189Z,55.14
2018-06-14T09:54:26.213Z,54.50
2018-06-14T09:55:26.234Z,54.92
2018-06-14T09:56:26.253Z,55.08
2018-06-14T09:58:26.294Z,55.60
2018-06-14T09:59:26.314Z,56.64
2018-06-14T10:00:26.443Z,55.92
2018-06-14T10:01:26.366Z,54.46
2018-06-14T10:02:26.381Z,54.85
2018-06-14T10:03:26.408Z,57.29
2018-06-14T10:04:26.431Z,57.09
2018-06-14T10:05:26.474Z,57.61
2018-06-14T10:06:26.531Z,56.54
2018-06-14T10:07:26.496Z,57.42
2018-06-14T10:08:26.524Z,55.28
2018-06-14T10:09:26.538Z,56.35
2018-06-14T10:10:26.606Z,55.93
2018-06-14T10:11:26.589Z,57.17
2018-06-14T10:12:26.659Z,56.13
2018-06-14T10:13:26.632Z,54.11
2018-06-14T10:14:26.650Z,53.83
2018-06-14T10:15:26.670Z,53.63
2018-06-14T10:16:26.740Z,54.14
2018-06-14T10:17:26.766Z,54.41
2018-06-14T10:21:26.802Z,54.53
2018-06-14T10:27:26.944Z,50.63
2018-06-14T10:28:27.029Z,50.53
2018-06-14T10:29:27.018Z,51.18
2018-06-14T10:30:27.006Z,52.03
2018-06-14T10:31:27.031Z,53.00
2018-06-14T10:32:27.052Z,52.86
2018-06-14T10:33:27.079Z,51.89
2018-06-14T10:34:27.130Z,51.62
2018-06-14T10:35:27.128Z,51.72
2018-06-14T10:36:27.152Z,50.80
2018-06-14T10:37:27.164Z,51.57
2018-06-14T10:38:27.188Z,51.97
2018-06-14T10:39:27.246Z,51.70
2018-06-14T10:40:27.234Z,51.60
2018-06-14T10:41:27.256Z,51.35
2018-06-14T10:42:27.275Z,53.34
2018-06-14T10:43:27.305Z,54.50
2018-06-14T10:44:27.325Z,53.24
2018-06-14T10:45:27.349Z,54.21
2018-06-14T10:46:27.381Z,54.60
2018-06-14T10:47:27.395Z,55.08
2018-06-14T10:48:27.417Z,54.60
2018-06-14T10:49:27.436Z,53.95
2018-06-14T10:50:27.456Z,54.07
2018-06-14T10:51:27.486Z,53.97
2018-06-14T10:52:27.604Z,53.52
2018-06-14T10:53:27.627Z,51.89
2018-06-14T10:54:27.554Z,53.22
2018-06-14T10:55:27.573Z,52.72
2018-06-14T10:56:27.601Z,53.20
2018-06-14T10:57:27.621Z,53.47
2018-06-14T10:58:27.697Z,54.34
2018-06-14T10:59:27.719Z,53.66
2018-06-14T11:00:27.697Z,54.34
2018-06-14T11:01:27.707Z,52.52
2018-06-14T11:02:27.734Z,51.84
2018-06-14T11:03:27.755Z,50.89
2018-06-14T11:04:27.836Z,51.35
2018-06-14T11:05:27.801Z,52.45
2018-06-14T11:06:27.830Z,51.70
2018-06-14T11:07:27.844Z,50.75
2018-06-14T11:08:27.868Z,48.34
2018-06-14T11:09:27.892Z,48.10
2018-06-14T11:10:27.976Z,47.42
2018-06-14T11:11:27.935Z,46.76
2018-06-14T11:12:27.965Z,48.56
2018-06-14T11:13:27.980Z,49.22
2018-06-14T11:14:28.004Z,49.90
2018-06-14T11:15:28.029Z,50.85
2018-06-14T11:16:28.050Z,51.01
2018-06-14T11:17:28.076Z,50.85
2018-06-14T11:18:28.111Z,49.66
2018-06-14T11:19:28.140Z,51.48
2018-06-14T11:20:28.145Z,51.18
2018-06-14T11:21:28.176Z,51.31
2018-06-14T11:22:28.197Z,50.14
2018-06-14T11:23:28.218Z,50.56
2018-06-14T11:24:28.238Z,50.82
2018-06-14T11:25:28.258Z,51.31
2018-06-14T11:26:28.282Z,50.26
2018-06-14T11:27:28.313Z,50.09
2018-06-14T11:28:28.336Z,49.61
2018-06-14T11:29:28.405Z,49.87
2018-06-14T11:30:28.402Z,50.43
2018-06-14T11:31:28.400Z,50.36
2018-06-14T11:32:28.426Z,50.75
2018-06-14T11:33:28.453Z,49.90
2018-06-14T11:34:28.474Z,49.97
2018-06-14T11:35:28.546Z,49.61
2018-06-14T11:36:28.524Z,50.19
2018-06-14T11:37:28.543Z,48.85
2018-06-14T11:38:28.569Z,48.78
2018-06-14T11:39:28.590Z,48.97
2018-06-14T11:40:28.619Z,48.71
2018-06-14T11:41:28.683Z,48.61
2018-06-14T11:42:28.659Z,47.66
2018-06-14T11:43:28.684Z,47.53
2018-06-14T11:44:28.706Z,47.25
2018-06-14T11:45:28.729Z,48.97
2018-06-14T11:46:28.753Z,48.12
2018-06-14T11:47:28.779Z,48.29
2018-06-14T11:48:28.800Z,48.54
2018-06-14T11:49:28.827Z,49.02
2018-06-14T11:50:28.846Z,49.29
2018-06-14T11:51:28.869Z,49.71
2018-06-14T11:52:28.899Z,49.61
2018-06-14T11:53:28.983Z,49.34
2018-06-14T11:54:28.943Z,48.58
2018-06-14T11:55:28.973Z,49.22
2018-06-14T11:56:28.991Z,49.73
2018-06-14T11:57:29.013Z,49.24
2018-06-14T11:58:29.046Z,48.78
2018-06-14T11:59:29.132Z,49.07
2018-06-14T12:00:29.090Z,49.10
2018-06-14T12:01:29.113Z,50.87
2018-06-14T12:02:29.136Z,51.23
2018-06-14T12:03:29.158Z,51.26
2018-06-14T12:04:29.177Z,50.48
2018-06-14T12:05:29.275Z,49.61
2018-06-14T12:06:29.230Z,49.61
2018-06-14T12:07:29.251Z,49.61
2018-06-14T12:08:29.361Z,49.19
2018-06-14T12:09:29.297Z,50.36
2018-06-14T12:10:29.327Z,51.04
2018-06-14T12:11:29.417Z,49.97
2018-06-14T12:12:29.373Z,50.58
2018-06-14T12:13:29.393Z,49.24
2018-06-14T12:14:29.417Z,49.24
2018-06-14T12:15:29.436Z,49.15
2018-06-14T12:16:29.463Z,48.58
2018-06-14T12:17:29.583Z,48.39
2018-06-14T12:18:29.506Z,48.78
2018-06-14T12:19:29.532Z,48.68
2018-06-14T12:20:29.570Z,49.41
2018-06-14T12:21:29.594Z,49.51
2018-06-14T12:22:29.603Z,49.44
2018-06-14T12:23:29.686Z,48.27
2018-06-14T12:24:29.659Z,48.49
2018-06-14T12:25:29.684Z,49.05
2018-06-14T12:26:29.699Z,49.56
2018-06-14T12:27:29.734Z,49.37
2018-06-14T12:28:29.746Z,48.19
2018-06-14T12:29:29.819Z,48.75
2018-06-14T12:30:29.807Z,48.66
2018-06-14T12:31:29.818Z,49.54
2018-06-14T12:32:29.843Z,49.95
2018-06-14T12:33:29.863Z,50.34
2018-06-14T12:34:29.887Z,49.49
2018-06-14T12:36:29.935Z,48.75
2018-06-14T12:37:29.958Z,49.24
2018-06-14T12:38:29.984Z,49.61
2018-06-14T12:39:30.010Z,49.61
2018-06-14T12:40:30.036Z,50.19
2018-06-14T12:41:30.060Z,49.56
2018-06-14T12:42:30.081Z,48.41
2018-06-14T12:43:30.099Z,47.44
2018-06-14T12:45:30.148Z,48.88
2018-06-14T12:46:30.175Z,48.49
2018-06-14T12:47:30.216Z,47.44
2018-06-14T12:48:30.218Z,47.83
2018-06-14T12:49:30.244Z,47.73
2018-06-14T12:50:30.266Z,47.73
2018-06-14T12:51:30.291Z,48.24
2018-06-14T12:52:30.316Z,46.47
2018-06-14T12:53:30.348Z,46.39
2018-06-14T12:54:30.367Z,46.47
2018-06-14T12:55:30.392Z,46.10
2018-06-14T12:56:30.424Z,47.15
2018-06-14T12:57:30.446Z,46.93
2018-06-14T12:58:30.470Z,47.83
2018-06-14T12:59:30.482Z,47.32
2018-06-14T13:00:30.582Z,46.73
2018-06-14T13:01:30.532Z,47.25
2018-06-14T13:02:30.555Z,46.49
2018-06-14T13:03:30.587Z,46.59
2018-06-14T13:04:30.605Z,46.59